createdAt,value
2019-03-06T12:21:24.429Z,27.78
2019-03-06T12:22:24.375Z,25.87
2019-03-06T12:23:24.363Z,25.60
2019-03-06T12:24:24.356Z,26.34
2019-03-06T12:25:24.351Z,22.53
2019-03-06T12:26:24.336Z,22.00
2019-03-06T12:27:24.479Z,21.33
2019-03-06T12:28:24.330Z,20.61
2019-03-06T12:29:24.404Z,20.07
2019-03-06T12:30:24.292Z,20.17
2019-03-06T12:31:24.283Z,19.79
2019-03-06T12:32:24.273Z,20.40
2019-03-06T12:33:24.266Z,20.39
2019-03-06T12:34:24.255Z,20.38
2019-03-06T12:35:24.237Z,19.42
2019-03-06T12:36:24.231Z,19.42
2019-03-06T12:37:24.212Z,20.21
2019-03-06T12:38:24.243Z,18.62
2019-03-06T12:39:24.191Z,19.73
2019-03-06T12:40:24.186Z,19.49
2019-03-06T12:41:24.173Z,17.69
2019-03-06T12:42:24.165Z,17.79
2019-03-06T12:43:24.151Z,18.83
2019-03-06T12:44:24.177Z,19.92
2019-03-06T12:45:24.130Z,16.07
2019-03-06T12:46:24.419Z,16.91
2019-03-06T12:47:24.104Z,15.86
2019-03-06T12:48:24.101Z,15.28
2019-03-06T12:49:24.089Z,18.12
2019-03-06T12:50:24.121Z,18.54
2019-03-06T12:51:31.049Z,19.30
2019-03-06T12:52:24.054Z,18.85
2019-03-06T12:53:24.047Z,18.85
2019-03-06T12:54:24.036Z,18.75
2019-03-06T12:55:24.027Z,19.98
2019-03-06T12:56:24.022Z,19.10
2019-03-06T12:57:24.006Z,17.49
2019-03-06T12:58:23.987Z,19.33
2019-03-06T12:59:23.986Z,18.06
2019-03-06T13:00:23.970Z,17.66
2019-03-06T13:01:23.991Z,19.30
2019-03-06T13:02:23.953Z,19.56
2019-03-06T13:03:23.934Z,20.40
2019-03-06T13:04:23.929Z,20.38
2019-03-06T13:05:23.915Z,20.14
2019-03-06T13:06:24.976Z,19.37
2019-03-06T13:07:23.909Z,18.66
2019-03-06T13:08:23.881Z,19.08
2019-03-06T13:09:23.870Z,19.74
2019-03-06T13:10:23.863Z,19.62
2019-03-06T13:11:23.854Z,19.70
2019-03-06T13:12:23.835Z,19.37
2019-03-06T13:13:23.845Z,18.98
2019-03-06T13:14:23.817Z,18.57
2019-03-06T13:15:23.806Z,18.87
2019-03-06T13:16:23.797Z,19.82
2019-03-06T13:17:23.784Z,19.26
2019-03-06T13:18:23.777Z,17.38
2019-03-06T13:19:23.768Z,16.90
2019-03-06T13:20:23.751Z,18.80
2019-03-06T13:21:23.745Z,19.82
2019-03-06T13:22:33.657Z,18.75
2019-03-06T13:23:23.717Z,18.04
2019-03-06T13:24:23.732Z,18.08
2019-03-06T13:25:23.703Z,19.74
2019-03-06T13:26:23.686Z,19.64
2019-03-06T13:27:23.675Z,18.01
2019-03-06T13:28:23.664Z,18.73
2019-03-06T13:29:25.736Z,18.13
2019-03-06T13:30:23.656Z,18.96
2019-03-06T13:31:23.640Z,19.66
2019-03-06T13:32:23.627Z,19.10
2019-03-06T13:33:23.615Z,17.74
2019-03-06T13:34:23.601Z,16.09
2019-03-06T13:35:23.617Z,17.49
2019-03-06T13:36:23.582Z,18.13
2019-03-06T13:37:23.575Z,17.70
2019-03-06T13:38:23.565Z,17.47
2019-03-06T13:39:23.555Z,16.54
2019-03-06T13:40:23.548Z,16.85
2019-03-06T13:41:23.553Z,17.24
2019-03-06T13:42:23.518Z,15.48
2019-03-06T13:43:23.504Z,14.78
2019-03-06T13:44:23.497Z,16.65
2019-03-06T13:45:23.485Z,16.03
2019-03-06T13:46:23.474Z,16.35
2019-03-06T13:47:23.499Z,15.80
2019-03-06T13:48:23.461Z,15.29
2019-03-06T13:49:23.443Z,14.77
2019-03-06T13:50:24.565Z,16.24
2019-03-06T13:51:23.418Z,15.48
2019-03-06T13:52:23.409Z,15.09
2019-03-06T13:53:33.782Z,15.72
2019-03-06T13:54:23.392Z,14.98
2019-03-06T13:55:23.377Z,15.92
2019-03-06T13:56:23.373Z,14.76
2019-03-06T13:57:23.364Z,15.37
2019-03-06T13:58:23.347Z,15.70
2019-03-06T13:59:23.377Z,15.32
2019-03-06T14:00:23.327Z,15.31
2019-03-06T14:01:23.311Z,15.84
2019-03-06T14:02:23.304Z,16.47
2019-03-06T14:03:23.287Z,15.42
2019-03-06T14:04:23.280Z,15.12
2019-03-06T14:05:23.306Z,15.23
2019-03-06T14:06:23.262Z,15.53
2019-03-06T14:07:23.244Z,14.48
2019-03-06T14:08:23.244Z,15.19
2019-03-06T14:09:23.248Z,15.48
2019-03-06T14:10:23.213Z,14.24
2019-03-06T14:11:23.208Z,13.32
2019-03-06T14:12:23.190Z,14.67
2019-03-06T14:13:23.182Z,14.56
2019-03-06T14:14:23.171Z,15.41
2019-03-06T14:15:23.158Z,14.61
2019-03-06T14:16:23.198Z,15.96
2019-03-06T14:17:23.141Z,16.77
2019-03-06T14:18:23.122Z,15.42
2019-03-06T14:19:23.114Z,15.63
2019-03-06T14:20:23.103Z,15.02
2019-03-06T14:21:23.089Z,16.06
2019-03-06T14:22:23.113Z,16.06
2019-03-06T14:23:23.068Z,16.05
2019-03-06T14:24:32.847Z,16.34
2019-03-06T14:25:23.047Z,15.18
2019-03-06T14:26:23.036Z,14.48
2019-03-06T14:27:23.026Z,14.79
2019-03-06T14:28:23.021Z,15.33
2019-03-06T14:29:23.001Z,15.67
2019-03-06T14:30:23.009Z,16.23
2019-03-06T14:31:23.293Z,16.57
2019-03-06T14:32:22.968Z,17.85
2019-03-06T14:33:24.029Z,19.57
2019-03-06T14:34:22.946Z,21.15
2019-03-06T14:35:22.936Z,20.86
2019-03-06T14:36:22.939Z,22.73
2019-03-06T14:37:22.913Z,20.83
2019-03-06T14:38:22.913Z,21.58
2019-03-06T14:39:22.933Z,21.92
2019-03-06T14:40:22.884Z,21.72
2019-03-06T14:41:22.876Z,21.30
2019-03-06T14:42:22.869Z,22.36
2019-03-06T14:43:22.847Z,20.76
2019-03-06T14:44:22.839Z,22.54
2019-03-06T14:45:22.851Z,21.15
2019-03-06T14:46:22.827Z,20.72
2019-03-06T14:47:22.808Z,20.32
2019-03-06T14:48:22.800Z,21.30
2019-03-06T14:49:22.792Z,21.63
2019-03-06T14:50:22.773Z,23.12
2019-03-06T14:51:22.840Z,24.18
2019-03-06T14:52:22.752Z,23.96
2019-03-06T14:53:22.745Z,23.76
2019-03-06T14:54:22.731Z,25.35
2019-03-06T14:55:34.096Z,25.13
2019-03-06T14:56:22.714Z,23.56
2019-03-06T14:57:22.820Z,24.93
2019-03-06T14:58:22.687Z,24.83
2019-03-06T14:59:22.676Z,25.67
2019-03-06T15:00:22.673Z,26.31
2019-03-06T15:01:22.659Z,26.64
2019-03-06T15:02:22.648Z,25.90
2019-03-06T15:03:22.645Z,24.84
2019-03-06T15:04:22.635Z,24.52
2019-03-06T15:05:22.622Z,25.16
2019-03-06T15:06:22.600Z,25.04
2019-03-06T15:07:22.588Z,26.94
2019-03-06T15:08:22.623Z,24.21
2019-03-06T15:09:22.574Z,24.73
2019-03-06T15:10:22.560Z,25.27
2019-03-06T15:11:22.547Z,24.96
2019-03-06T15:12:22.545Z,25.26
2019-03-06T15:13:22.531Z,25.49
2019-03-06T15:14:22.559Z,25.70
2019-03-06T15:15:23.268Z,26.86
2019-03-06T15:16:22.500Z,26.03
2019-03-06T15:17:22.492Z,25.07
2019-03-06T15:18:22.479Z,25.81
2019-03-06T15:19:22.472Z,24.76
2019-03-06T15:20:22.466Z,25.07
2019-03-06T15:21:22.446Z,26.89
2019-03-06T15:22:22.436Z,26.89
2019-03-06T15:23:22.427Z,25.71
2019-03-06T15:24:22.416Z,27.93
2019-03-06T15:25:22.445Z,27.51
2019-03-06T15:26:32.357Z,26.57
2019-03-06T15:27:22.383Z,26.47
2019-03-06T15:28:22.372Z,25.95
2019-03-06T15:29:22.362Z,28.16
2019-03-06T15:30:22.358Z,28.59
2019-03-06T15:31:22.376Z,26.17
2019-03-06T15:32:22.332Z,27.23
2019-03-06T15:33:22.324Z,26.26
2019-03-06T15:34:22.309Z,27.23
2019-03-06T15:35:22.303Z,27.77
2019-03-06T15:36:22.289Z,26.18
2019-03-06T15:37:22.292Z,27.45
2019-03-06T15:38:22.272Z,27.87
2019-03-06T15:39:22.263Z,27.76
2019-03-06T15:40:22.442Z,28.83
2019-03-06T15:41:22.237Z,28.19
2019-03-06T15:42:22.269Z,25.96
2019-03-06T15:43:22.220Z,25.44
2019-03-06T15:44:22.212Z,27.03
2019-03-06T15:45:22.201Z,26.71
2019-03-06T15:46:22.190Z,25.86
2019-03-06T15:47:22.172Z,27.03
2019-03-06T15:48:22.200Z,26.29
2019-03-06T15:49:22.152Z,27.56
2019-03-06T15:50:22.147Z,27.24
2019-03-06T15:51:22.137Z,28.31
2019-03-06T15:52:22.120Z,29.37
2019-03-06T15:53:24.465Z,27.04
2019-03-06T15:54:22.107Z,27.03
2019-03-06T15:55:22.097Z,27.04
2019-03-06T15:56:22.089Z,28.09
2019-03-06T15:57:32.746Z,28.85
2019-03-06T15:58:22.057Z,30.01
2019-03-06T15:59:22.231Z,28.63
2019-03-06T16:00:22.038Z,25.54
2019-03-06T16:01:22.033Z,27.56
2019-03-06T16:02:22.016Z,26.71
2019-03-06T16:03:22.008Z,29.57
2019-03-06T16:04:22.005Z,27.87
2019-03-06T16:05:22.031Z,28.09
2019-03-06T16:06:21.976Z,28.72
2019-03-06T16:07:21.962Z,29.25
2019-03-06T16:08:21.953Z,29.14
2019-03-06T16:09:21.951Z,29.36
2019-03-06T16:10:21.941Z,27.77
2019-03-06T16:11:21.958Z,28.72
2019-03-06T16:12:21.912Z,28.72
2019-03-06T16:13:21.901Z,28.19
2019-03-06T16:14:21.891Z,29.68
2019-03-06T16:15:21.887Z,30.21
2019-03-06T16:16:21.882Z,30.95
2019-03-06T16:17:21.906Z,29.45
2019-03-06T16:18:21.849Z,29.56
2019-03-06T16:19:21.846Z,28.62
2019-03-06T16:20:21.829Z,26.39
2019-03-06T16:21:21.832Z,28.62
2019-03-06T16:22:21.809Z,28.09
2019-03-06T16:23:21.822Z,28.51
2019-03-06T16:24:21.785Z,28.31
2019-03-06T16:25:21.775Z,28.00
2019-03-06T16:26:21.770Z,28.19
2019-03-06T16:27:21.761Z,27.98
2019-03-06T16:28:32.351Z,28.19
2019-03-06T16:29:23.718Z,27.98
2019-03-06T16:30:21.727Z,29.16
2019-03-06T16:31:21.716Z,31.81
2019-03-06T16:32:21.701Z,29.80
2019-03-06T16:33:21.700Z,29.27
2019-03-06T16:34:21.753Z,29.80
2019-03-06T16:35:21.675Z,30.96
2019-03-06T16:36:21.668Z,29.80
2019-03-06T16:37:21.652Z,31.60
2019-03-06T16:38:21.652Z,29.48
2019-03-06T16:39:21.635Z,31.05
2019-03-06T16:40:21.656Z,30.42
2019-03-06T16:41:21.611Z,31.92
2019-03-06T16:42:21.599Z,30.96
2019-03-06T16:43:21.593Z,28.28
2019-03-06T16:44:21.578Z,29.14
2019-03-06T16:45:21.565Z,31.16
2019-03-06T16:46:21.594Z,30.84
2019-03-06T16:47:21.551Z,29.58
2019-03-06T16:48:21.536Z,29.16
2019-03-06T16:49:21.526Z,29.69
2019-03-06T16:50:21.521Z,30.42
2019-03-06T16:51:21.502Z,31.27
2019-03-06T16:52:21.512Z,31.90
2019-03-06T16:53:21.483Z,29.99
2019-03-06T16:54:21.478Z,29.58
2019-03-06T16:55:21.467Z,29.69
2019-03-06T16:56:21.458Z,29.58
2019-03-06T16:57:21.454Z,28.85
2019-03-06T16:58:21.475Z,29.16
2019-03-06T16:59:31.748Z,28.20
2019-03-06T17:00:21.410Z,28.00
2019-03-06T17:01:21.404Z,29.90
2019-03-06T17:02:21.396Z,29.16
2019-03-06T17:03:21.378Z,30.43
2019-03-06T17:04:21.391Z,30.66
2019-03-06T17:05:21.374Z,30.75
2019-03-06T17:06:21.356Z,29.90
2019-03-06T17:07:21.346Z,29.48
2019-03-06T17:08:21.335Z,30.98
2019-03-06T17:09:21.361Z,30.34
2019-03-06T17:10:21.319Z,29.69
2019-03-06T17:11:21.333Z,29.49
2019-03-06T17:12:21.289Z,29.17
2019-03-06T17:13:21.287Z,31.81
2019-03-06T17:14:21.273Z,31.19
2019-03-06T17:15:21.293Z,30.02
2019-03-06T17:16:21.249Z,31.28
2019-03-06T17:17:21.233Z,30.98
2019-03-06T17:18:21.226Z,30.02
2019-03-06T17:19:21.217Z,30.44
2019-03-06T17:20:21.204Z,30.34
2019-03-06T17:21:21.238Z,31.51
2019-03-06T17:22:21.184Z,31.29
2019-03-06T17:23:21.179Z,31.93
2019-03-06T17:24:21.163Z,31.10
2019-03-06T17:25:21.155Z,31.82
2019-03-06T17:26:21.150Z,31.82
2019-03-06T17:27:21.336Z,31.84
2019-03-06T17:28:21.121Z,32.48
2019-03-06T17:29:21.111Z,32.79
2019-03-06T17:30:32.371Z,31.84
2019-03-06T17:31:21.090Z,31.84
2019-03-06T17:32:21.100Z,31.84
2019-03-06T17:33:21.071Z,32.26
2019-03-06T17:34:21.057Z,31.31
2019-03-06T17:35:21.052Z,31.84
2019-03-06T17:36:21.042Z,32.67
2019-03-06T17:37:21.028Z,33.00
2019-03-06T17:38:21.056Z,31.41
2019-03-06T17:39:21.016Z,33.22
2019-03-06T17:40:20.997Z,35.55
2019-03-06T17:41:20.991Z,33.22
2019-03-06T17:42:20.978Z,33.22
2019-03-06T17:43:20.960Z,33.22
2019-03-06T17:44:21.126Z,33.22
2019-03-06T17:45:20.947Z,33.64
2019-03-06T17:46:20.934Z,33.11
2019-03-06T17:47:20.923Z,33.10
2019-03-06T17:48:20.917Z,34.39
2019-03-06T17:49:20.907Z,35.77
2019-03-06T17:50:20.941Z,35.98
2019-03-06T17:51:20.883Z,33.86
2019-03-06T17:52:20.878Z,35.24
2019-03-06T17:53:20.862Z,35.88
2019-03-06T17:54:20.846Z,38.42
2019-03-06T17:55:20.845Z,38.32
2019-03-06T17:56:20.862Z,38.21
2019-03-06T17:57:20.816Z,36.30
2019-03-06T17:58:20.807Z,36.08
2019-03-06T17:59:20.804Z,35.77
2019-03-06T18:00:20.785Z,36.72
2019-03-06T18:01:30.874Z,38.64
2019-03-06T18:02:20.762Z,37.26
2019-03-06T18:03:20.752Z,36.61
2019-03-06T18:04:20.750Z,37.04
2019-03-06T18:05:20.734Z,37.89
2019-03-06T18:06:20.725Z,38.42
2019-03-06T18:07:20.760Z,38.83
2019-03-06T18:08:20.701Z,38.51
2019-03-06T18:09:20.689Z,38.19
2019-03-06T18:10:20.683Z,40.31
2019-03-06T18:11:20.681Z,41.71
2019-03-06T18:12:20.661Z,41.61
2019-03-06T18:13:20.689Z,42.03
2019-03-06T18:14:20.640Z,41.50
2019-03-06T18:15:20.627Z,41.50
2019-03-06T18:16:20.623Z,41.93
2019-03-06T18:17:20.610Z,41.18
2019-03-06T18:18:20.596Z,42.03
2019-03-06T18:19:20.730Z,41.61
2019-03-06T18:20:20.578Z,41.06
2019-03-06T18:21:20.568Z,41.50
2019-03-06T18:22:20.564Z,42.77
2019-03-06T18:23:20.548Z,42.88
2019-03-06T18:24:20.535Z,42.86
2019-03-06T18:25:20.565Z,42.88
2019-03-06T18:26:20.520Z,42.46
2019-03-06T18:27:26.311Z,43.19
2019-03-06T18:28:21.496Z,43.60
2019-03-06T18:29:20.486Z,44.79
2019-03-06T18:30:20.471Z,44.05
2019-03-06T18:31:20.494Z,44.24
2019-03-06T18:32:30.850Z,44.67
2019-03-06T18:33:20.449Z,44.98
2019-03-06T18:34:20.433Z,45.51
2019-03-06T18:35:20.426Z,45.40
2019-03-06T18:36:20.416Z,45.20
2019-03-06T18:37:20.436Z,45.94
2019-03-06T18:38:20.395Z,46.89
2019-03-06T18:39:20.382Z,47.10
2019-03-06T18:40:20.366Z,47.63
2019-03-06T18:41:20.359Z,46.68
2019-03-06T18:42:20.350Z,47.42
2019-03-06T18:43:20.356Z,47.42
2019-03-06T18:44:20.332Z,47.53
2019-03-06T18:45:20.323Z,47.42
2019-03-06T18:46:20.315Z,47.96
2019-03-06T18:47:20.307Z,48.03
2019-03-06T18:48:20.323Z,47.85
2019-03-06T18:49:20.275Z,48.88
2019-03-06T18:50:20.267Z,49.86
2019-03-06T18:51:20.262Z,49.10
2019-03-06T18:52:20.247Z,49.52
2019-03-06T18:53:20.242Z,50.48
2019-03-06T18:54:20.266Z,49.95
2019-03-06T18:55:20.208Z,49.41
2019-03-06T18:56:20.210Z,49.21
2019-03-06T18:57:20.192Z,50.69
2019-03-06T18:58:20.182Z,51.01
2019-03-06T18:59:20.172Z,51.98
2019-03-06T19:00:20.180Z,51.43
2019-03-06T19:01:20.150Z,51.35
2019-03-06T19:02:20.144Z,52.07
2019-03-06T19:03:30.109Z,52.73
2019-03-06T19:04:20.120Z,53.45
2019-03-06T19:05:20.283Z,53.23
2019-03-06T19:06:20.924Z,53.23
2019-03-06T19:07:20.084Z,53.26
2019-03-06T19:08:20.079Z,53.23
2019-03-06T19:09:20.073Z,53.55
2019-03-06T19:10:20.054Z,53.77
2019-03-06T19:11:20.078Z,53.87
2019-03-06T19:12:20.044Z,54.08
2019-03-06T19:13:20.025Z,54.30
2019-03-06T19:14:20.012Z,54.82
2019-03-06T19:15:20.004Z,55.15
2019-03-06T19:16:19.998Z,54.69
2019-03-06T19:17:20.242Z,54.40
2019-03-06T19:18:19.974Z,54.59
2019-03-06T19:19:19.963Z,55.88
2019-03-06T19:20:19.953Z,55.44
2019-03-06T19:21:19.937Z,54.93
2019-03-06T19:22:19.929Z,55.35
2019-03-06T19:23:19.965Z,55.25
2019-03-06T19:24:19.908Z,56.10
2019-03-06T19:25:19.909Z,55.88
2019-03-06T19:26:19.891Z,55.67
2019-03-06T19:27:19.878Z,56.31
2019-03-06T19:28:19.869Z,55.44
2019-03-06T19:29:19.880Z,55.86
2019-03-06T19:30:19.847Z,55.99
2019-03-06T19:31:19.839Z,56.07
2019-03-06T19:32:19.835Z,56.63
2019-03-06T19:33:19.822Z,56.84
2019-03-06T19:34:30.415Z,56.84
2019-03-06T19:35:19.798Z,57.13
2019-03-06T19:36:19.786Z,57.48
2019-03-06T19:37:19.777Z,57.16
2019-03-06T19:38:19.768Z,57.37
2019-03-06T19:39:19.759Z,57.69
2019-03-06T19:40:19.763Z,57.03
2019-03-06T19:41:19.734Z,57.77
2019-03-06T19:42:19.724Z,57.56
2019-03-06T19:43:19.719Z,57.79
2019-03-06T19:44:19.706Z,57.90
2019-03-06T19:45:19.692Z,57.79
2019-03-06T19:46:19.861Z,57.45
2019-03-06T19:47:19.674Z,58.96
2019-03-06T19:48:19.665Z,59.70
2019-03-06T19:49:19.657Z,59.28
2019-03-06T19:50:19.641Z,59.25
2019-03-06T19:51:19.628Z,59.39
2019-03-06T19:52:19.668Z,59.36
2019-03-06T19:53:19.614Z,60.10
2019-03-06T19:54:19.594Z,59.99
2019-03-06T19:55:19.595Z,59.99
2019-03-06T19:56:19.582Z,59.99
2019-03-06T19:57:19.568Z,60.10
2019-03-06T19:58:19.576Z,60.31
2019-03-06T19:59:19.542Z,59.57
2019-03-06T20:00:19.540Z,59.75
2019-03-06T20:01:19.523Z,60.50
2019-03-06T20:02:19.516Z,60.31
2019-03-06T20:03:19.504Z,60.10
2019-03-06T20:04:19.528Z,60.42
2019-03-06T20:05:30.270Z,60.21
2019-03-06T20:06:26.743Z,60.21
2019-03-06T20:07:20.459Z,61.05
2019-03-06T20:08:19.449Z,60.95
2019-03-06T20:09:19.443Z,60.63
2019-03-06T20:10:19.471Z,60.63
2019-03-06T20:11:19.418Z,60.63
2019-03-06T20:12:19.408Z,61.16
2019-03-06T20:13:19.410Z,61.47
2019-03-06T20:14:19.390Z,60.95
2019-03-06T20:15:19.378Z,61.80
2019-03-06T20:16:19.402Z,61.69
2019-03-06T20:17:20.313Z,61.37
2019-03-06T20:18:19.359Z,61.16
2019-03-06T20:19:19.343Z,61.47
2019-03-06T20:20:19.325Z,62.54
2019-03-06T20:21:20.222Z,61.80
2019-03-06T20:22:19.305Z,62.01
2019-03-06T20:23:19.294Z,62.01
2019-03-06T20:24:19.281Z,61.90
2019-03-06T20:25:19.275Z,62.32
2019-03-06T20:26:19.263Z,62.62
2019-03-06T20:27:19.294Z,61.77
2019-03-06T20:28:19.244Z,62.40
2019-03-06T20:29:19.228Z,62.30
2019-03-06T20:30:19.223Z,62.62
2019-03-06T20:31:19.211Z,61.87
2019-03-06T20:32:19.208Z,62.83
2019-03-06T20:33:19.204Z,62.93
2019-03-06T20:34:19.180Z,62.40
2019-03-06T20:35:19.166Z,63.17
2019-03-06T20:36:29.770Z,62.85
2019-03-06T20:37:19.148Z,62.93
2019-03-06T20:38:19.182Z,63.28
2019-03-06T20:39:19.128Z,63.67
2019-03-06T20:40:19.120Z,63.57
2019-03-06T20:41:19.116Z,63.70
2019-03-06T20:42:19.101Z,63.49
2019-03-06T20:43:19.085Z,63.60
2019-03-06T20:44:19.120Z,63.46
2019-03-06T20:45:19.065Z,64.10
2019-03-06T20:46:19.061Z,63.46
2019-03-06T20:47:19.047Z,63.49
2019-03-06T20:48:19.037Z,64.55
2019-03-06T20:49:19.034Z,64.42
2019-03-06T20:50:19.090Z,64.63
2019-03-06T20:51:19.012Z,64.55
2019-03-06T20:52:19.002Z,64.95
2019-03-06T20:53:18.980Z,64.73
2019-03-06T20:54:18.979Z,64.63
2019-03-06T20:55:18.972Z,64.84
2019-03-06T20:56:18.988Z,64.63
2019-03-06T20:57:18.938Z,64.84
2019-03-06T20:58:18.937Z,64.84
2019-03-06T20:59:18.931Z,64.95
2019-03-06T21:00:18.922Z,64.95
2019-03-06T21:01:18.903Z,65.16
2019-03-06T21:02:18.925Z,65.05
2019-03-06T21:03:18.885Z,65.05
2019-03-06T21:04:20.216Z,65.16
2019-03-06T21:05:18.866Z,65.58
2019-03-06T21:06:18.858Z,65.69
2019-03-06T21:07:29.467Z,65.48
2019-03-06T21:08:18.829Z,65.80
2019-03-06T21:09:18.820Z,65.90
2019-03-06T21:10:18.806Z,66.11
2019-03-06T21:11:18.796Z,66.53
2019-03-06T21:12:18.791Z,66.00
2019-03-06T21:13:18.823Z,66.00
2019-03-06T21:14:18.768Z,66.22
2019-03-06T21:15:18.754Z,66.32
2019-03-06T21:16:18.743Z,66.85
2019-03-06T21:17:18.736Z,66.85
2019-03-06T21:18:18.734Z,67.17
2019-03-06T21:19:18.752Z,67.07
2019-03-06T21:20:18.704Z,67.49
2019-03-06T21:21:18.696Z,66.96
2019-03-06T21:22:18.691Z,67.28
2019-03-06T21:23:18.669Z,66.85
2019-03-06T21:24:18.663Z,67.81
2019-03-06T21:25:18.674Z,67.35
2019-03-06T21:26:18.647Z,67.81
2019-03-06T21:27:18.632Z,67.91
2019-03-06T21:28:18.631Z,68.13
2019-03-06T21:29:18.616Z,68.02
2019-03-06T21:30:18.600Z,67.99
2019-03-06T21:31:18.609Z,68.44
2019-03-06T21:32:18.582Z,68.33
2019-03-06T21:33:18.572Z,68.87
2019-03-06T21:34:18.566Z,68.76
2019-03-06T21:35:18.552Z,69.15
2019-03-06T21:36:18.544Z,69.15
2019-03-06T21:37:18.703Z,69.50
2019-03-06T21:38:29.250Z,70.03
2019-03-06T21:39:18.509Z,69.40
2019-03-06T21:40:18.505Z,70.53
2019-03-06T21:41:18.487Z,70.42
2019-03-06T21:42:18.475Z,70.53
2019-03-06T21:43:18.511Z,70.53
2019-03-06T21:44:18.461Z,70.95
2019-03-06T21:45:18.441Z,71.80
2019-03-06T21:46:18.442Z,72.44
2019-03-06T21:47:18.426Z,72.33
2019-03-06T21:48:18.410Z,72.44
2019-03-06T21:49:18.439Z,73.18
2019-03-06T21:50:18.396Z,73.92
2019-03-06T21:51:18.381Z,74.13
2019-03-06T21:52:18.379Z,74.02
2019-03-06T21:53:18.372Z,74.34
2019-03-06T21:54:18.356Z,74.45
2019-03-06T21:55:18.352Z,74.66
2019-03-06T21:56:18.338Z,74.98
2019-03-06T21:57:18.324Z,74.98
2019-03-06T21:58:18.374Z,75.40
2019-03-06T21:59:18.301Z,75.82
2019-03-06T22:00:18.330Z,76.35
2019-03-06T22:01:18.287Z,76.04
2019-03-06T22:02:18.272Z,75.72
2019-03-06T22:03:18.263Z,76.46
2019-03-06T22:04:18.246Z,76.14
2019-03-06T22:05:18.245Z,76.04
2019-03-06T22:06:18.257Z,76.35
2019-03-06T22:07:18.217Z,76.25
2019-03-06T22:08:18.210Z,76.99
2019-03-06T22:09:28.757Z,76.99
2019-03-06T22:10:18.184Z,76.89
2019-03-06T22:11:18.215Z,77.20
2019-03-06T22:12:18.169Z,77.20
2019-03-06T22:13:18.155Z,77.41
2019-03-06T22:14:18.149Z,77.41
2019-03-06T22:15:18.131Z,77.62
2019-03-06T22:16:18.122Z,77.27
2019-03-06T22:17:18.164Z,78.05
2019-03-06T22:18:18.105Z,77.41
2019-03-06T22:19:18.095Z,77.62
2019-03-06T22:20:18.093Z,78.12
2019-03-06T22:21:18.073Z,78.02
2019-03-06T22:22:18.066Z,78.69
2019-03-06T22:23:19.282Z,77.91
2019-03-06T22:24:18.040Z,78.86
2019-03-06T22:25:18.030Z,79.39
2019-03-06T22:26:18.062Z,79.28
2019-03-06T22:27:18.010Z,79.18
2019-03-06T22:28:18.039Z,79.07
2019-03-06T22:29:17.987Z,78.97
2019-03-06T22:30:17.981Z,78.47
2019-03-06T22:31:17.979Z,79.07
2019-03-06T22:32:17.968Z,79.50
2019-03-06T22:33:18.395Z,79.71
2019-03-06T22:34:17.974Z,78.86
2019-03-06T22:35:17.928Z,78.86
2019-03-06T22:36:17.921Z,78.86
2019-03-06T22:37:17.908Z,79.39
2019-03-06T22:38:17.906Z,78.89
2019-03-06T22:39:17.882Z,79.39
2019-03-06T22:40:30.512Z,78.55
2019-03-06T22:41:17.862Z,79.18
2019-03-06T22:42:17.855Z,79.60
2019-03-06T22:43:17.843Z,79.57
2019-03-06T22:44:17.841Z,79.60
2019-03-06T22:45:17.822Z,79.07
2019-03-06T22:46:17.850Z,78.97
2019-03-06T22:47:17.802Z,79.28
2019-03-06T22:48:17.800Z,79.03
2019-03-06T22:49:17.793Z,79.03
2019-03-06T22:50:17.826Z,79.03
2019-03-06T22:51:17.763Z,79.07
2019-03-06T22:52:17.785Z,79.14
2019-03-06T22:53:17.738Z,79.35
2019-03-06T22:54:17.735Z,78.75
2019-03-06T22:55:17.721Z,79.18
2019-03-06T22:56:17.706Z,78.75
2019-03-06T22:57:17.700Z,79.50
2019-03-06T22:58:17.693Z,79.50
2019-03-06T22:59:17.683Z,79.28
2019-03-06T23:00:17.671Z,79.18
2019-03-06T23:01:17.662Z,79.28
2019-03-06T23:02:17.648Z,79.35
2019-03-06T23:03:17.681Z,79.50
2019-03-06T23:04:17.633Z,78.97
2019-03-06T23:05:17.622Z,79.35
2019-03-06T23:06:17.606Z,78.72
2019-03-06T23:07:17.605Z,79.39
2019-03-06T23:08:17.585Z,79.18
2019-03-06T23:09:17.607Z,79.35
2019-03-06T23:10:17.565Z,79.39
2019-03-06T23:11:27.753Z,79.50
2019-03-06T23:12:17.539Z,78.97
2019-03-06T23:13:17.534Z,79.18
2019-03-06T23:14:17.524Z,79.39
2019-03-06T23:15:17.548Z,79.07
2019-03-06T23:16:17.503Z,79.28
2019-03-06T23:17:17.502Z,79.28
2019-03-06T23:18:17.478Z,78.75
2019-03-06T23:19:17.474Z,79.28
2019-03-06T23:20:17.462Z,78.97
2019-03-06T23:21:17.463Z,79.25
2019-03-06T23:22:17.442Z,79.18
2019-03-06T23:23:17.429Z,79.07
2019-03-06T23:24:17.423Z,79.18
2019-03-06T23:25:18.334Z,79.28
2019-03-06T23:26:17.416Z,79.18
2019-03-06T23:27:17.385Z,79.07
2019-03-06T23:28:17.375Z,79.28
2019-03-06T23:29:17.369Z,79.18
2019-03-06T23:30:17.357Z,79.28
2019-03-06T23:31:17.350Z,79.28
2019-03-06T23:32:17.416Z,79.07
2019-03-06T23:33:17.324Z,79.18
2019-03-06T23:34:17.319Z,79.18
2019-03-06T23:35:17.307Z,79.07
2019-03-06T23:36:17.297Z,78.86
2019-03-06T23:37:17.282Z,78.75
2019-03-06T23:38:17.448Z,79.07
2019-03-06T23:39:17.260Z,79.18
2019-03-06T23:40:17.266Z,78.72
2019-03-06T23:41:17.249Z,79.60
2019-03-06T23:42:27.558Z,79.39
2019-03-06T23:43:17.222Z,79.60
2019-03-06T23:44:17.279Z,79.50
2019-03-06T23:45:17.200Z,79.46
2019-03-06T23:46:17.188Z,79.50
2019-03-06T23:47:17.183Z,79.82
2019-03-06T23:48:17.178Z,79.60
2019-03-06T23:49:17.168Z,79.60
2019-03-06T23:50:17.160Z,79.71
2019-03-06T23:51:17.141Z,79.28
2019-03-06T23:52:17.131Z,80.13
2019-03-06T23:53:17.116Z,79.71
2019-03-06T23:54:19.340Z,79.71
2019-03-06T23:55:17.134Z,79.82
2019-03-06T23:56:17.085Z,80.24
2019-03-06T23:57:17.086Z,80.13
2019-03-06T23:58:17.066Z,80.34
2019-03-06T23:59:17.063Z,80.45
